Terminal Aerodrome Forecast
Issued by NWS Memphis, TN

Home | Current Version | Previous Version | Text Only | Print | Product List | Glossary On
Versions: 1 2 3 4 5 6 7 8 9 10 11 12 13 14 15 16 17 18 19 20 21 22 23 24 25 26 27 28 29 30 31 32 33 34 35 36 37
000
FTUS44 KMEG 300900 AAA
TAFMEM
TAF AMD
KMEM 300900Z 3009/3106 23004KT 6SM BR SCT250
      TEMPO 3011/3012 1SM BR SCT002
     FM301400 25006KT P6SM SCT100 SCT250
     FM310000 20004KT P6SM SCT100 SCT250=

USA.gov is the U.S. government's official web portal to all federal, state and local government web resources and services.